createdAt,value
2019-05-01T00:00:28.807Z,43.80
2019-05-01T00:03:17.218Z,43.28
2019-05-01T00:05:48.709Z,44.65
2019-05-01T00:08:17.796Z,41.20
2019-05-01T00:10:46.753Z,40.65
2019-05-01T00:13:16.592Z,47.05
2019-05-01T00:15:46.562Z,46.77
2019-05-01T00:18:15.666Z,45.75
2019-05-01T00:20:44.879Z,41.08
2019-05-01T00:23:13.884Z,49.08
2019-05-01T00:25:42.876Z,48.78
2019-05-01T00:28:12.487Z,41.18
2019-05-01T00:30:41.902Z,42.20
2019-05-01T00:33:10.998Z,40.70
2019-05-01T00:35:40.056Z,45.63
2019-05-01T00:38:09.149Z,45.05
2019-05-01T00:40:38.238Z,40.92
2019-05-01T00:43:07.253Z,39.35
2019-05-01T00:45:36.259Z,44.48
2019-05-01T00:48:05.284Z,45.15
2019-05-01T00:50:34.329Z,42.25
2019-05-01T00:53:03.269Z,39.35
2019-05-01T00:55:50.318Z,48.70
2019-05-01T00:58:33.648Z,38.95
2019-05-01T01:01:27.715Z,41.42
2019-05-01T01:03:57.385Z,41.02
2019-05-01T01:06:26.485Z,47.20
2019-05-01T01:08:55.446Z,41.05
2019-05-01T01:11:24.842Z,39.15
2019-05-01T01:13:53.915Z,41.28
2019-05-01T01:16:22.896Z,42.85
2019-05-01T01:18:51.893Z,43.80
2019-05-01T01:21:20.974Z,44.00
2019-05-01T01:23:50.805Z,41.40
2019-05-01T01:26:19.953Z,45.58
2019-05-01T01:28:49.047Z,40.33
2019-05-01T01:31:18.185Z,51.98
2019-05-01T01:33:47.248Z,40.55
2019-05-01T01:36:16.281Z,44.23
2019-05-01T01:38:45.432Z,46.77
2019-05-01T01:41:14.655Z,41.35
2019-05-01T01:44:02.879Z,42.48
2019-05-01T01:46:32.692Z,48.78
2019-05-01T01:49:01.757Z,40.00
2019-05-01T01:51:30.816Z,46.33
2019-05-01T01:54:00.369Z,44.88
2019-05-01T01:56:29.454Z,42.83
2019-05-01T01:58:58.625Z,47.75
2019-05-01T02:01:52.748Z,49.42
2019-05-01T02:04:35.587Z,42.03
2019-05-01T02:07:04.683Z,45.33
2019-05-01T02:09:33.931Z,47.88
2019-05-01T02:12:03.315Z,46.98
2019-05-01T02:14:32.387Z,45.65
2019-05-01T02:17:01.425Z,44.65
2019-05-01T02:19:30.532Z,48.85
2019-05-01T02:21:59.574Z,57.88
2019-05-01T02:24:28.653Z,43.70
2019-05-01T02:26:59.692Z,49.13
2019-05-01T02:29:34.824Z,45.45
2019-05-01T02:32:04.497Z,43.08
2019-05-01T02:34:36.085Z,44.50
2019-05-01T02:37:05.148Z,42.30
2019-05-01T02:39:35.658Z,46.08
2019-05-01T02:42:06.286Z,43.38
2019-05-01T02:44:42.069Z,46.58
2019-05-01T02:47:14.532Z,43.58
2019-05-01T02:49:51.414Z,46.80
2019-05-01T02:52:23.405Z,44.95
2019-05-01T02:54:53.813Z,44.90
2019-05-01T02:57:24.307Z,56.53
2019-05-01T02:59:55.494Z,55.15
2019-05-01T03:02:27.592Z,58.40
2019-05-01T03:04:57.808Z,61.63
2019-05-01T03:07:30.869Z,59.85
2019-05-01T03:10:01.188Z,57.75
2019-05-01T03:12:33.579Z,64.32
2019-05-01T03:15:04.496Z,62.58
2019-05-01T03:18:06.563Z,60.38
2019-05-01T03:20:44.948Z,61.37
2019-05-01T03:23:21.792Z,59.40
2019-05-01T03:25:51.368Z,62.90
2019-05-01T03:28:20.966Z,61.35
2019-05-01T03:30:50.314Z,59.00
2019-05-01T03:33:19.631Z,69.30
2019-05-01T03:35:49.142Z,61.53
2019-05-01T03:38:18.650Z,70.45
2019-05-01T03:40:47.888Z,76.97
2019-05-01T03:43:17.340Z,72.78
2019-05-01T03:45:46.902Z,70.15
2019-05-01T03:48:16.149Z,72.87
2019-05-01T03:50:47.033Z,76.20
2019-05-01T03:53:17.175Z,72.25
2019-05-01T03:55:46.838Z,67.70
2019-05-01T03:58:16.344Z,66.37
2019-05-01T04:01:03.574Z,74.80
2019-05-01T04:03:36.374Z,72.42
2019-05-01T04:06:05.714Z,63.70
2019-05-01T04:08:34.738Z,72.37
2019-05-01T04:11:04.662Z,75.28
2019-05-01T04:13:34.184Z,68.57
2019-05-01T04:16:04.016Z,67.65
2019-05-01T04:18:33.564Z,74.60
2019-05-01T04:21:03.045Z,64.80
2019-05-01T04:23:32.358Z,59.20
2019-05-01T04:26:02.172Z,53.08
2019-05-01T04:28:41.246Z,56.88
2019-05-01T04:31:29.625Z,52.05
2019-05-01T04:34:01.391Z,53.92
2019-05-01T04:36:35.642Z,58.42
2019-05-01T04:39:06.257Z,51.90
2019-05-01T04:41:35.867Z,51.40
2019-05-01T04:44:05.435Z,54.15
2019-05-01T04:46:35.163Z,50.03
2019-05-01T04:49:04.291Z,56.45
2019-05-01T04:51:33.403Z,57.80
2019-05-01T04:54:02.892Z,69.62
2019-05-01T04:56:32.410Z,56.75
2019-05-01T04:59:01.606Z,59.58
2019-05-01T05:01:49.741Z,54.53
2019-05-01T05:04:18.960Z,60.30
2019-05-01T05:06:48.220Z,55.20
2019-05-01T05:09:17.365Z,57.85
2019-05-01T05:11:51.646Z,59.50
2019-05-01T05:14:25.363Z,60.15
2019-05-01T05:17:01.688Z,49.48
2019-05-01T05:19:30.798Z,52.75
2019-05-01T05:21:59.808Z,50.28
2019-05-01T05:24:28.990Z,54.58
2019-05-01T05:26:59.300Z,56.58
2019-05-01T05:29:29.015Z,56.60
2019-05-01T05:32:00.364Z,60.08
2019-05-01T05:34:30.762Z,61.40
2019-05-01T05:37:02.735Z,57.62
2019-05-01T05:39:45.146Z,56.40
2019-05-01T05:42:14.651Z,50.35
2019-05-01T05:44:45.413Z,51.83
2019-05-01T05:47:14.603Z,61.40
2019-05-01T05:49:43.970Z,57.53
2019-05-01T05:52:23.909Z,52.50
2019-05-01T05:55:19.929Z,54.85
2019-05-01T05:58:17.959Z,58.45
2019-05-01T06:01:07.256Z,54.30
2019-05-01T06:03:59.118Z,49.58
2019-05-01T06:06:37.083Z,49.40
2019-05-01T06:09:09.038Z,54.10
2019-05-01T06:12:08.998Z,44.15
2019-05-01T06:14:50.823Z,43.95
2019-05-01T06:17:29.867Z,43.65
2019-05-01T06:20:04.981Z,43.70
2019-05-01T06:22:52.063Z,46.25
2019-05-01T06:25:26.601Z,44.48
2019-05-01T06:27:55.809Z,44.23
2019-05-01T06:30:25.184Z,46.42
2019-05-01T06:32:54.473Z,42.03
2019-05-01T06:35:24.059Z,48.70
2019-05-01T06:38:06.892Z,42.58
2019-05-01T06:40:40.360Z,43.30
2019-05-01T06:43:28.257Z,50.70
2019-05-01T06:46:15.011Z,60.90
2019-05-01T06:48:53.350Z,56.30
2019-05-01T06:51:41.333Z,48.68
2019-05-01T06:54:16.216Z,53.48
2019-05-01T06:56:43.422Z,44.30
2019-05-01T06:59:13.188Z,44.90
2019-05-01T07:01:42.716Z,41.00
2019-05-01T07:04:13.994Z,60.08
2019-05-01T07:06:42.573Z,46.58
2019-05-01T07:09:13.064Z,46.77
2019-05-01T07:11:47.489Z,45.83
2019-05-01T07:14:16.335Z,50.85
2019-05-01T07:16:45.877Z,44.40
2019-05-01T07:19:16.292Z,53.35
2019-05-01T07:21:45.297Z,49.15
2019-05-01T07:24:14.642Z,45.90
2019-05-01T07:26:47.562Z,48.95
2019-05-01T07:29:16.825Z,52.98
2019-05-01T07:31:46.043Z,47.23
2019-05-01T07:34:16.800Z,52.00
2019-05-01T07:36:50.161Z,48.42
2019-05-01T07:39:17.092Z,50.90
2019-05-01T07:41:46.502Z,46.95
2019-05-01T07:44:33.840Z,52.13
2019-05-01T07:47:19.767Z,51.48
2019-05-01T07:49:54.773Z,55.78
2019-05-01T07:52:25.092Z,59.80
2019-05-01T07:54:55.730Z,58.20
2019-05-01T07:57:25.076Z,58.28
2019-05-01T07:59:58.156Z,56.00
2019-05-01T08:02:25.780Z,53.40
2019-05-01T08:04:55.868Z,58.33
2019-05-01T08:07:27.832Z,54.85
2019-05-01T08:09:55.671Z,58.78
2019-05-01T08:12:25.889Z,56.13
2019-05-01T08:14:55.310Z,55.45
2019-05-01T08:17:26.079Z,55.95
2019-05-01T08:20:03.204Z,54.35
2019-05-01T08:22:37.155Z,55.25
2019-05-01T08:25:06.659Z,55.23
2019-05-01T08:28:03.872Z,56.10
2019-05-01T08:30:40.813Z,55.00
2019-05-01T08:33:29.140Z,55.45
2019-05-01T08:35:58.285Z,58.75
2019-05-01T08:38:29.788Z,54.15
2019-05-01T08:40:58.029Z,53.30
2019-05-01T08:43:26.975Z,54.95
2019-05-01T08:46:16.567Z,53.52
2019-05-01T08:48:55.848Z,56.40
2019-05-01T08:51:24.763Z,50.65
2019-05-01T08:53:57.888Z,47.85
2019-05-01T08:56:24.350Z,45.25
2019-05-01T08:58:53.351Z,51.13
2019-05-01T09:01:22.313Z,55.20
2019-05-01T09:03:54.284Z,53.80
2019-05-01T09:06:34.219Z,51.40
2019-05-01T09:08:52.943Z,51.83
2019-05-01T09:11:21.932Z,51.35
2019-05-01T09:13:54.712Z,50.40
2019-05-01T09:16:23.347Z,51.45
2019-05-01T09:18:52.910Z,56.80
2019-05-01T09:21:21.951Z,55.43
2019-05-01T09:23:53.124Z,57.00
2019-05-01T09:26:32.352Z,55.85
2019-05-01T09:29:05.115Z,51.30
2019-05-01T09:31:35.605Z,52.10
2019-05-01T09:34:05.537Z,53.45
2019-05-01T09:36:34.604Z,48.70
2019-05-01T09:39:05.852Z,50.92
2019-05-01T09:41:38.398Z,50.12
2019-05-01T09:44:10.532Z,51.13
2019-05-01T09:46:36.561Z,50.73
2019-05-01T09:49:06.492Z,53.73
2019-05-01T09:51:53.324Z,49.05
2019-05-01T09:54:43.057Z,55.98
2019-05-01T09:57:12.371Z,53.48
2019-05-01T09:59:41.590Z,56.92
2019-05-01T10:02:11.779Z,51.53
2019-05-01T10:04:40.667Z,57.43
2019-05-01T10:07:09.715Z,51.23
2019-05-01T10:09:38.613Z,54.55
2019-05-01T10:12:11.540Z,54.35
2019-05-01T10:14:38.510Z,49.90
2019-05-01T10:17:07.794Z,52.05
2019-05-01T10:19:36.923Z,56.37
2019-05-01T10:22:05.976Z,48.08
2019-05-01T10:24:37.654Z,51.98
2019-05-01T10:27:07.507Z,53.15
2019-05-01T10:29:56.905Z,56.15
2019-05-01T10:32:31.775Z,56.68
2019-05-01T10:35:06.095Z,53.73
2019-05-01T10:37:35.476Z,55.60
2019-05-01T10:40:05.469Z,59.80
2019-05-01T10:42:34.411Z,56.53
2019-05-01T10:45:03.818Z,56.58
2019-05-01T10:47:32.826Z,56.20
2019-05-01T10:50:01.866Z,60.58
2019-05-01T10:52:30.782Z,63.00
2019-05-01T10:54:59.805Z,64.90
2019-05-01T10:57:29.283Z,59.42
2019-05-01T10:59:58.243Z,58.20
2019-05-01T11:02:27.529Z,58.70
2019-05-01T11:04:56.636Z,61.13
2019-05-01T11:07:25.617Z,66.83
2019-05-01T11:09:54.661Z,67.00
2019-05-01T11:12:23.759Z,60.10
2019-05-01T11:14:53.055Z,52.47
2019-05-01T11:17:22.144Z,60.67
2019-05-01T11:19:51.063Z,60.50
2019-05-01T11:22:20.175Z,64.67
2019-05-01T11:24:49.134Z,67.73
2019-05-01T11:27:18.085Z,66.13
2019-05-01T11:29:47.121Z,76.93
2019-05-01T11:32:41.231Z,64.27
2019-05-01T11:35:29.330Z,62.23
2019-05-01T11:38:15.926Z,67.73
2019-05-01T11:40:48.084Z,68.40
2019-05-01T11:43:17.076Z,59.33
2019-05-01T11:45:46.130Z,56.67
2019-05-01T11:48:15.040Z,58.40
2019-05-01T11:50:44.030Z,58.53
2019-05-01T11:53:13.024Z,57.53
2019-05-01T11:55:42.013Z,64.00
2019-05-01T11:58:10.884Z,58.63
2019-05-01T12:00:40.016Z,62.60
2019-05-01T12:03:08.983Z,55.80
2019-05-01T12:05:37.998Z,61.27
2019-05-01T12:08:06.965Z,58.83
2019-05-01T12:10:35.962Z,58.83
2019-05-01T12:13:05.115Z,56.17
2019-05-01T12:15:34.150Z,60.80
2019-05-01T12:18:03.287Z,65.80
2019-05-01T12:20:32.228Z,69.07
2019-05-01T12:23:01.186Z,63.60
2019-05-01T12:25:30.189Z,63.40
2019-05-01T12:27:59.256Z,60.40
2019-05-01T12:30:28.302Z,57.37
2019-05-01T12:32:57.361Z,57.27
2019-05-01T12:35:26.314Z,62.37
2019-05-01T12:37:57.396Z,57.83
2019-05-01T12:40:26.542Z,58.10
2019-05-01T12:42:55.384Z,61.00
2019-05-01T12:45:25.330Z,57.93
2019-05-01T12:47:56.556Z,62.87
2019-05-01T12:50:25.552Z,59.63
2019-05-01T12:53:12.222Z,54.87
2019-05-01T12:56:15.639Z,57.10
2019-05-01T12:58:46.415Z,54.77
2019-05-01T13:01:15.537Z,54.10
2019-05-01T13:03:44.563Z,57.07
2019-05-01T13:06:14.476Z,54.50
2019-05-01T13:08:43.683Z,56.90
2019-05-01T13:11:12.642Z,52.93
2019-05-01T13:13:41.620Z,54.53
2019-05-01T13:16:10.516Z,55.43
2019-05-01T13:18:39.657Z,55.03
2019-05-01T13:21:08.531Z,52.93
2019-05-01T13:23:37.469Z,55.40
2019-05-01T13:26:13.679Z,55.50
2019-05-01T13:28:49.426Z,60.30
2019-05-01T13:31:28.251Z,53.50
2019-05-01T13:33:57.282Z,59.47
2019-05-01T13:36:26.796Z,55.83
2019-05-01T13:38:55.634Z,55.63
2019-05-01T13:41:24.826Z,53.73
2019-05-01T13:43:53.860Z,58.60
2019-05-01T13:46:22.842Z,55.97
2019-05-01T13:48:51.888Z,62.93
2019-05-01T13:51:21.070Z,58.83
2019-05-01T13:53:50.097Z,59.27
2019-05-01T13:56:19.414Z,65.30
2019-05-01T13:58:48.464Z,67.30
2019-05-01T14:01:18.234Z,65.73
2019-05-01T14:03:47.256Z,61.77
2019-05-01T14:06:16.387Z,63.80
2019-05-01T14:08:45.443Z,63.27
2019-05-01T14:11:14.345Z,57.77
2019-05-01T14:13:43.227Z,59.00
2019-05-01T14:16:14.406Z,65.20
2019-05-01T14:18:42.926Z,61.33
2019-05-01T14:21:25.067Z,65.93
2019-05-01T14:24:12.314Z,73.83
2019-05-01T14:26:41.329Z,59.83
2019-05-01T14:29:10.376Z,63.03
2019-05-01T14:31:39.479Z,59.73
2019-05-01T14:34:08.439Z,63.60
2019-05-01T14:36:37.456Z,62.10
2019-05-01T14:39:07.503Z,63.53
2019-05-01T14:41:36.547Z,54.53
2019-05-01T14:44:06.128Z,51.90
2019-05-01T14:46:35.137Z,55.00
2019-05-01T14:49:04.442Z,52.30
2019-05-01T14:51:33.335Z,53.53
2019-05-01T14:54:02.412Z,51.83
2019-05-01T14:56:31.450Z,64.40
2019-05-01T14:59:00.427Z,51.50
2019-05-01T15:01:29.478Z,52.50
2019-05-01T15:03:58.492Z,47.20
2019-05-01T15:06:27.504Z,51.33
2019-05-01T15:08:56.380Z,50.57
2019-05-01T15:11:25.363Z,48.63
2019-05-01T15:14:02.935Z,59.07
2019-05-01T15:16:56.823Z,51.23
2019-05-01T15:19:28.024Z,56.83
2019-05-01T15:21:57.029Z,52.83
2019-05-01T15:24:25.990Z,55.60
2019-05-01T15:26:55.023Z,51.13
2019-05-01T15:29:23.955Z,58.30
2019-05-01T15:31:53.043Z,52.77
2019-05-01T15:34:21.968Z,58.07
2019-05-01T15:36:51.072Z,60.90
2019-05-01T15:39:34.309Z,57.40
2019-05-01T15:42:20.166Z,55.10
2019-05-01T15:44:49.219Z,51.60
2019-05-01T15:47:18.231Z,52.63
2019-05-01T15:49:47.214Z,53.27
2019-05-01T15:52:16.235Z,56.03
2019-05-01T15:54:45.206Z,58.57
2019-05-01T15:57:14.222Z,54.23
2019-05-01T15:59:43.242Z,59.07
2019-05-01T16:02:12.317Z,53.17
2019-05-01T16:04:41.182Z,53.20
2019-05-01T16:07:10.297Z,51.40
2019-05-01T16:09:39.261Z,56.13
2019-05-01T16:12:45.810Z,53.73
2019-05-01T16:15:20.412Z,54.77
2019-05-01T16:17:49.390Z,56.53
2019-05-01T16:20:18.439Z,56.83
2019-05-01T16:22:47.397Z,52.47
2019-05-01T16:25:16.581Z,56.47
2019-05-01T16:27:45.507Z,63.97
2019-05-01T16:30:17.140Z,59.60
2019-05-01T16:32:46.232Z,56.37
2019-05-01T16:35:15.573Z,60.07
2019-05-01T16:37:44.594Z,70.43
2019-05-01T16:40:32.715Z,69.43
2019-05-01T16:43:01.807Z,66.00
2019-05-01T16:45:30.954Z,61.40
2019-05-01T16:47:59.958Z,61.77
2019-05-01T16:50:29.080Z,63.20
2019-05-01T16:52:58.034Z,52.93
2019-05-01T16:55:27.123Z,55.60
2019-05-01T16:57:56.049Z,58.30
2019-05-01T17:00:55.011Z,60.20
2019-05-01T17:03:28.610Z,53.67
2019-05-01T17:06:22.541Z,58.23
2019-05-01T17:09:00.662Z,57.13
2019-05-01T17:11:31.657Z,58.70
2019-05-01T17:14:00.890Z,61.23
2019-05-01T17:16:29.973Z,59.73
2019-05-01T17:18:58.892Z,56.87
2019-05-01T17:21:27.829Z,71.47
2019-05-01T17:23:56.736Z,64.73
2019-05-01T17:26:25.732Z,62.27
2019-05-01T17:28:55.024Z,53.97
2019-05-01T17:31:26.044Z,58.60
2019-05-01T17:33:55.660Z,62.40
2019-05-01T17:36:25.708Z,66.47
2019-05-01T17:38:54.751Z,61.80
2019-05-01T17:41:27.098Z,56.33
2019-05-01T17:43:56.702Z,59.43
2019-05-01T17:46:25.296Z,62.47
2019-05-01T17:48:54.252Z,64.47
2019-05-01T17:51:23.201Z,60.47
2019-05-01T17:53:52.105Z,52.33
2019-05-01T17:56:27.674Z,60.83
2019-05-01T17:58:51.828Z,61.37
2019-05-01T18:01:45.996Z,66.60
2019-05-01T18:04:32.812Z,62.97
2019-05-01T18:07:02.037Z,59.80
2019-05-01T18:09:30.873Z,57.97
2019-05-01T18:11:59.904Z,56.93
2019-05-01T18:14:29.035Z,55.10
2019-05-01T18:16:58.037Z,69.20
2019-05-01T18:19:27.078Z,63.03
2019-05-01T18:22:15.220Z,61.97
2019-05-01T18:24:59.677Z,54.77
2019-05-01T18:27:49.932Z,60.70
2019-05-01T18:30:20.629Z,61.90
2019-05-01T18:32:52.363Z,58.40
2019-05-01T18:35:19.606Z,60.77
2019-05-01T18:38:06.425Z,63.17
2019-05-01T18:40:39.847Z,62.20
2019-05-01T18:43:09.581Z,57.47
2019-05-01T18:45:56.588Z,58.80
2019-05-01T18:48:25.899Z,61.87
2019-05-01T18:50:56.404Z,58.57
2019-05-01T18:53:25.983Z,64.83
2019-05-01T18:55:55.175Z,68.10
2019-05-01T18:58:24.139Z,78.23
2019-05-01T19:00:53.325Z,66.60
2019-05-01T19:03:22.660Z,56.57
2019-05-01T19:05:51.976Z,65.13
2019-05-01T19:08:21.025Z,55.50
2019-05-01T19:10:50.055Z,58.90
2019-05-01T19:13:19.305Z,57.70
2019-05-01T19:15:48.191Z,65.90
2019-05-01T19:18:17.289Z,64.30
2019-05-01T19:20:58.830Z,73.13
2019-05-01T19:23:17.183Z,63.03
2019-05-01T19:25:46.373Z,67.03
2019-05-01T19:28:15.778Z,71.00
2019-05-01T19:30:45.074Z,70.73
2019-05-01T19:33:14.522Z,72.53
2019-05-01T19:35:43.691Z,67.37
2019-05-01T19:38:13.004Z,87.90
2019-05-01T19:40:42.300Z,81.77
2019-05-01T19:43:11.496Z,76.50
2019-05-01T19:45:40.483Z,72.30
2019-05-01T19:48:09.606Z,76.23
2019-05-01T19:50:39.977Z,68.57
2019-05-01T19:53:10.051Z,67.20
2019-05-01T19:55:44.912Z,70.43
2019-05-01T19:58:11.286Z,69.23
2019-05-01T20:01:04.614Z,73.30
2019-05-01T20:03:36.117Z,69.50
2019-05-01T20:06:07.656Z,72.57
2019-05-01T20:08:36.220Z,68.20
2019-05-01T20:11:05.593Z,67.73
2019-05-01T20:13:34.659Z,73.63
2019-05-01T20:16:05.340Z,71.30
2019-05-01T20:18:34.411Z,82.00
2019-05-01T20:21:03.459Z,67.53
2019-05-01T20:23:33.246Z,67.03
2019-05-01T20:26:02.447Z,70.97
2019-05-01T20:28:31.454Z,76.60
2019-05-01T20:31:00.555Z,68.20
2019-05-01T20:33:33.445Z,75.20
2019-05-01T20:36:05.052Z,70.07
2019-05-01T20:38:31.279Z,77.83
2019-05-01T20:41:00.281Z,77.10
2019-05-01T20:43:29.236Z,65.53
2019-05-01T20:45:58.247Z,62.43
2019-05-01T20:48:27.323Z,72.13
2019-05-01T20:50:56.336Z,66.60
2019-05-01T20:53:25.392Z,72.17
2019-05-01T20:56:10.056Z,74.90
2019-05-01T20:58:39.075Z,57.17
2019-05-01T21:01:08.310Z,58.57
2019-05-01T21:03:38.999Z,50.27
2019-05-01T21:06:14.306Z,54.57
2019-05-01T21:08:54.855Z,62.87
2019-05-01T21:11:29.611Z,45.37
2019-05-01T21:14:15.718Z,49.30
2019-05-01T21:16:32.952Z,43.70
2019-05-01T21:18:59.932Z,43.70
2019-05-01T21:21:28.964Z,41.37
2019-05-01T21:23:57.950Z,36.60
2019-05-01T21:26:27.237Z,44.80
2019-05-01T21:28:56.170Z,36.93
2019-05-01T21:31:25.310Z,39.10
2019-05-01T21:33:54.349Z,41.30
2019-05-01T21:36:23.331Z,41.27
2019-05-01T21:38:52.347Z,42.23
2019-05-01T21:41:22.436Z,48.13
2019-05-01T21:43:52.947Z,41.68
2019-05-01T21:46:22.755Z,40.73
2019-05-01T21:48:53.548Z,43.77
2019-05-01T21:51:22.864Z,45.83
2019-05-01T21:53:52.945Z,45.40
2019-05-01T21:56:22.159Z,43.33
2019-05-01T21:58:51.182Z,40.83
2019-05-01T22:01:20.591Z,44.43
2019-05-01T22:03:52.530Z,47.63
2019-05-01T22:06:20.555Z,44.97
2019-05-01T22:08:49.676Z,44.33
2019-05-01T22:11:18.779Z,52.57
2019-05-01T22:13:47.858Z,44.50
2019-05-01T22:16:22.303Z,44.80
2019-05-01T22:19:10.375Z,45.58
2019-05-01T22:21:57.214Z,44.87
2019-05-01T22:24:45.341Z,46.27
2019-05-01T22:27:21.605Z,41.30
2019-05-01T22:30:05.804Z,42.63
2019-05-01T22:32:40.068Z,42.80
2019-05-01T22:35:23.030Z,41.60
2019-05-01T22:37:52.118Z,45.28
2019-05-01T22:40:34.067Z,41.87
2019-05-01T22:43:03.038Z,39.50
2019-05-01T22:45:32.070Z,28.00
2019-05-01T22:48:01.179Z,36.03
2019-05-01T22:50:30.234Z,29.47
2019-05-01T22:52:59.404Z,32.67
2019-05-01T22:55:28.379Z,30.65
2019-05-01T22:57:57.385Z,28.65
2019-05-01T23:00:38.189Z,28.38
2019-05-01T23:03:09.404Z,27.05
2019-05-01T23:05:38.432Z,21.55
2019-05-01T23:08:07.524Z,24.92
2019-05-01T23:10:36.959Z,27.27
2019-05-01T23:13:06.479Z,31.25
2019-05-01T23:15:35.668Z,30.48
2019-05-01T23:18:05.125Z,31.37
2019-05-01T23:23:38.764Z,29.67
2019-05-01T23:26:11.687Z,27.82
2019-05-01T23:28:39.838Z,30.97
2019-05-01T23:31:09.531Z,30.80
2019-05-01T23:33:38.510Z,32.63
2019-05-01T23:36:07.557Z,33.42
2019-05-01T23:38:36.707Z,33.80
2019-05-01T23:41:05.758Z,35.78
2019-05-01T23:43:34.803Z,31.77
2019-05-01T23:46:03.724Z,36.60
2019-05-01T23:48:32.778Z,33.00
2019-05-01T23:51:01.695Z,35.20
2019-05-01T23:53:30.775Z,33.20
2019-05-01T23:56:01.746Z,40.15
2019-05-01T23:58:30.672Z,32.38
